Etusivu
METAR-TAF:

METAR-TAF

Lentoasemat :

Alger, Algeria

Leveyspiiri: 36-43N, Pituuspiiri: 003-15E, korkeus merenpinnasta: 25 m

Tämänhetkinen sää

Tämä raportti tehtiin 24 minuuttia sitten, kello 10.00 UTC
Tuuli 7 kn idästä
Lämpötila 16°C
Kosteus 59%
Ilmanpaine 1022 hPa
Näkyvyys 10 km tai enemmän
ei pilviä alle 1500 m:ssä eikä cumulonimbus-pilviä

METAR: DAAG 231000Z 08007KT CAVOK 16/08 Q1022

Aika: 11:24 (10:24 UTC)

Sääennuste

Tämä raportti tehtiin 5 tuntia ja 24 minuuttia sitten, kello 05.00 UTC
Ennuste voimassa 23. päivästä klo 06 UTC - 24. päivään klo 06 UTC
Tuuli 2 kn eri suunnista
Näkyvyys 10 km tai enemmän
ei pilviä alle 1500 m:ssä eikä cumulonimbus-pilviä
Tulossa
23. päivästä klo 10 UTC - 23. päivään klo 14 UTC
Tuuli 10 kn pohjoisesta/koillisesta
Tulossa
23. päivästä klo 17 UTC - 23. päivään klo 21 UTC
Tuuli 5 kn kaakosta

TAF: DAAG 230500Z 2306/2406 VRB02KT CAVOK BECMG 2310/2314 03010KT BECMG 2317/2321 14005KT

Säähavainnot ja -ennusteet yli 4000 lentoasemalta (METAR- ja TAF-raportit).

Käytössä olevat sääasemat on merkitty karttaan keltaisilla ja punaisilla pisteillä.

Aseta hiiri pisteen päälle nähdäksesi sääaseman nimen.

Klikkaa sitten nähdäksesi säähavainnot ja -ennusteet.

Kartan vaihtaminen: klikkaa mustalla rastilla varustettuja vihreitä pisteitä, niin voit zoomata sisään; viivalla varustettua vihreää pistettä, niin voit zoomata ulos tai vihreitä nuolia, niin pääset viereisille kartoille.


METAR-TAF: